sensor_id;sensor_type;location;lat;lon;timestamp;temperature;humidity
20200;DHT22;36284;37.236;-121.934;2023-09-19T00:00:48;25.70;99.90
20200;DHT22;36284;37.236;-121.934;2023-09-19T00:03:16;25.50;99.90
20200;DHT22;36284;37.236;-121.934;2023-09-19T00:05:44;25.50;99.90
20200;DHT22;36284;37.236;-121.934;2023-09-19T00:08:11;25.60;99.90
20200;DHT22;36284;37.236;-121.934;2023-09-19T00:10:39;26.00;99.90
20200;DHT22;36284;37.236;-121.934;2023-09-19T00:13:09;25.90;99.90
20200;DHT22;36284;37.236;-121.934;2023-09-19T00:15:47;25.80;99.90
20200;DHT22;36284;37.236;-121.934;2023-09-19T00:18:18;25.80;99.90
20200;DHT22;36284;37.236;-121.934;2023-09-19T00:20:47;25.90;99.90
20200;DHT22;36284;37.236;-121.934;2023-09-19T00:23:14;25.40;99.90
20200;DHT22;36284;37.236;-121.934;2023-09-19T00:25:41;25.30;99.90
20200;DHT22;36284;37.236;-121.934;2023-09-19T00:28:08;25.40;99.90
20200;DHT22;36284;37.236;-121.934;2023-09-19T00:30:36;25.30;99.90
20200;DHT22;36284;37.236;-121.934;2023-09-19T00:33:05;25.30;99.90
20200;DHT22;36284;37.236;-121.934;2023-09-19T00:35:34;24.90;99.90
20200;DHT22;36284;37.236;-121.934;2023-09-19T00:38:01;25.00;99.90
20200;DHT22;36284;37.236;-121.934;2023-09-19T00:40:28;24.90;99.90
20200;DHT22;36284;37.236;-121.934;2023-09-19T00:42:59;24.90;99.90
20200;DHT22;36284;37.236;-121.934;2023-09-19T00:45:29;25.00;99.90
20200;DHT22;36284;37.236;-121.934;2023-09-19T00:47:57;24.70;99.90
20200;DHT22;36284;37.236;-121.934;2023-09-19T00:50:25;24.90;99.90
20200;DHT22;36284;37.236;-121.934;2023-09-19T00:52:56;24.80;99.90
20200;DHT22;36284;37.236;-121.934;2023-09-19T00:55:24;24.70;99.90
20200;DHT22;36284;37.236;-121.934;2023-09-19T00:57:52;24.40;99.90
20200;DHT22;36284;37.236;-121.934;2023-09-19T01:00:19;24.30;99.90
20200;DHT22;36284;37.236;-121.934;2023-09-19T01:02:47;24.00;99.90
20200;DHT22;36284;37.236;-121.934;2023-09-19T01:05:14;24.00;99.90
20200;DHT22;36284;37.236;-121.934;2023-09-19T01:07:42;23.80;99.90
20200;DHT22;36284;37.236;-121.934;2023-09-19T01:10:13;23.80;99.90
20200;DHT22;36284;37.236;-121.934;2023-09-19T01:15:49;23.40;99.90
20200;DHT22;36284;37.236;-121.934;2023-09-19T01:18:43;23.40;99.90
20200;DHT22;36284;37.236;-121.934;2023-09-19T01:30:02;23.20;99.90
20200;DHT22;36284;37.236;-121.934;2023-09-19T01:32:30;22.90;99.90
20200;DHT22;36284;37.236;-121.934;2023-09-19T01:34:59;23.00;99.90
20200;DHT22;36284;37.236;-121.934;2023-09-19T01:37:30;23.00;99.90
20200;DHT22;36284;37.236;-121.934;2023-09-19T01:40:07;22.90;99.90
20200;DHT22;36284;37.236;-121.934;2023-09-19T01:48:19;22.50;99.90
20200;DHT22;36284;37.236;-121.934;2023-09-19T01:51:03;22.40;99.90
20200;DHT22;36284;37.236;-121.934;2023-09-19T01:54:02;22.30;99.90
20200;DHT22;36284;37.236;-121.934;2023-09-19T01:59:12;22.00;99.90
20200;DHT22;36284;37.236;-121.934;2023-09-19T02:06:35;21.80;99.90
20200;DHT22;36284;37.236;-121.934;2023-09-19T02:11:30;21.60;99.90
20200;DHT22;36284;37.236;-121.934;2023-09-19T02:13:57;21.60;99.90
20200;DHT22;36284;37.236;-121.934;2023-09-19T02:16:25;21.60;99.90
20200;DHT22;36284;37.236;-121.934;2023-09-19T02:18:52;21.40;99.90
20200;DHT22;36284;37.236;-121.934;2023-09-19T02:21:20;21.40;99.90
20200;DHT22;36284;37.236;-121.934;2023-09-19T02:23:48;21.40;99.90
20200;DHT22;36284;37.236;-121.934;2023-09-19T02:26:15;21.30;99.90
20200;DHT22;36284;37.236;-121.934;2023-09-19T02:31:09;20.90;99.90
20200;DHT22;36284;37.236;-121.934;2023-09-19T02:33:37;20.90;99.90
20200;DHT22;36284;37.236;-121.934;2023-09-19T02:36:04;20.80;99.90
20200;DHT22;36284;37.236;-121.934;2023-09-19T02:38:31;20.80;99.90
20200;DHT22;36284;37.236;-121.934;2023-09-19T02:43:25;20.50;99.90
20200;DHT22;36284;37.236;-121.934;2023-09-19T02:45:52;20.70;99.90
20200;DHT22;36284;37.236;-121.934;2023-09-19T02:48:23;20.60;99.90
20200;DHT22;36284;37.236;-121.934;2023-09-19T02:50:51;20.60;99.90
20200;DHT22;36284;37.236;-121.934;2023-09-19T02:53:19;20.50;99.90
20200;DHT22;36284;37.236;-121.934;2023-09-19T02:55:47;20.40;99.90
20200;DHT22;36284;37.236;-121.934;2023-09-19T02:58:14;20.40;99.90
20200;DHT22;36284;37.236;-121.934;2023-09-19T03:00:42;20.40;99.90
20200;DHT22;36284;37.236;-121.934;2023-09-19T03:03:14;20.40;99.90
20200;DHT22;36284;37.236;-121.934;2023-09-19T03:05:42;20.10;99.90
20200;DHT22;36284;37.236;-121.934;2023-09-19T03:08:16;20.10;99.90
20200;DHT22;36284;37.236;-121.934;2023-09-19T03:10:46;20.10;99.90
20200;DHT22;36284;37.236;-121.934;2023-09-19T03:13:14;20.20;99.90
20200;DHT22;36284;37.236;-121.934;2023-09-19T03:15:44;20.20;99.90
20200;DHT22;36284;37.236;-121.934;2023-09-19T03:18:14;20.10;99.90
20200;DHT22;36284;37.236;-121.934;2023-09-19T03:20:41;20.10;99.90
20200;DHT22;36284;37.236;-121.934;2023-09-19T03:23:08;20.00;99.90
20200;DHT22;36284;37.236;-121.934;2023-09-19T03:25:35;19.90;99.90
20200;DHT22;36284;37.236;-121.934;2023-09-19T03:28:03;19.80;99.90
20200;DHT22;36284;37.236;-121.934;2023-09-19T03:30:32;19.80;99.90
20200;DHT22;36284;37.236;-121.934;2023-09-19T03:33:00;19.70;99.90
20200;DHT22;36284;37.236;-121.934;2023-09-19T03:35:27;19.70;99.90
20200;DHT22;36284;37.236;-121.934;2023-09-19T03:37:54;19.70;99.90
20200;DHT22;36284;37.236;-121.934;2023-09-19T03:40:21;19.60;99.90
20200;DHT22;36284;37.236;-121.934;2023-09-19T03:42:49;19.50;99.90
20200;DHT22;36284;37.236;-121.934;2023-09-19T03:45:17;19.50;99.90
20200;DHT22;36284;37.236;-121.934;2023-09-19T03:47:44;19.60;99.90
20200;DHT22;36284;37.236;-121.934;2023-09-19T03:50:14;19.50;99.90
20200;DHT22;36284;37.236;-121.934;2023-09-19T03:52:44;19.50;99.90
20200;DHT22;36284;37.236;-121.934;2023-09-19T03:55:11;19.30;99.90
20200;DHT22;36284;37.236;-121.934;2023-09-19T03:57:38;19.20;99.90
20200;DHT22;36284;37.236;-121.934;2023-09-19T04:00:06;19.20;99.90
20200;DHT22;36284;37.236;-121.934;2023-09-19T04:02:39;19.20;99.90
20200;DHT22;36284;37.236;-121.934;2023-09-19T04:05:06;19.20;99.90
20200;DHT22;36284;37.236;-121.934;2023-09-19T04:07:33;19.20;99.90
20200;DHT22;36284;37.236;-121.934;2023-09-19T04:10:01;19.10;99.90
20200;DHT22;36284;37.236;-121.934;2023-09-19T04:12:28;19.10;99.90
20200;DHT22;36284;37.236;-121.934;2023-09-19T04:14:55;19.10;99.90
20200;DHT22;36284;37.236;-121.934;2023-09-19T04:17:22;18.90;99.90
20200;DHT22;36284;37.236;-121.934;2023-09-19T04:19:49;18.90;99.90
20200;DHT22;36284;37.236;-121.934;2023-09-19T04:22:16;18.90;99.90
20200;DHT22;36284;37.236;-121.934;2023-09-19T04:24:43;18.90;99.90
20200;DHT22;36284;37.236;-121.934;2023-09-19T04:27:10;18.80;99.90
20200;DHT22;36284;37.236;-121.934;2023-09-19T04:29:40;18.80;99.90
20200;DHT22;36284;37.236;-121.934;2023-09-19T04:32:10;18.80;99.90
20200;DHT22;36284;37.236;-121.934;2023-09-19T04:34:39;18.80;99.90
20200;DHT22;36284;37.236;-121.934;2023-09-19T04:37:06;18.70;99.90
20200;DHT22;36284;37.236;-121.934;2023-09-19T04:39:33;18.70;99.90
20200;DHT22;36284;37.236;-121.934;2023-09-19T04:42:00;18.60;99.90
20200;DHT22;36284;37.236;-121.934;2023-09-19T04:44:27;18.50;99.90
20200;DHT22;36284;37.236;-121.934;2023-09-19T04:46:54;18.40;99.90
20200;DHT22;36284;37.236;-121.934;2023-09-19T04:49:21;18.30;99.90
20200;DHT22;36284;37.236;-121.934;2023-09-19T04:51:48;17.80;99.90
20200;DHT22;36284;37.236;-121.934;2023-09-19T04:54:15;18.10;99.90
20200;DHT22;36284;37.236;-121.934;2023-09-19T04:56:42;18.00;99.90
20200;DHT22;36284;37.236;-121.934;2023-09-19T04:59:09;18.00;99.90
20200;DHT22;36284;37.236;-121.934;2023-09-19T05:04:04;17.80;99.90
20200;DHT22;36284;37.236;-121.934;2023-09-19T05:06:31;17.30;99.90
20200;DHT22;36284;37.236;-121.934;2023-09-19T05:09:02;17.70;99.90
20200;DHT22;36284;37.236;-121.934;2023-09-19T05:11:31;17.50;99.90
20200;DHT22;36284;37.236;-121.934;2023-09-19T05:13:59;17.50;99.90
20200;DHT22;36284;37.236;-121.934;2023-09-19T05:16:30;17.40;99.90
20200;DHT22;36284;37.236;-121.934;2023-09-19T05:19:00;17.30;99.90
20200;DHT22;36284;37.236;-121.934;2023-09-19T05:21:27;17.40;99.90
20200;DHT22;36284;37.236;-121.934;2023-09-19T05:23:56;17.30;99.90
20200;DHT22;36284;37.236;-121.934;2023-09-19T05:26:23;17.30;99.90
20200;DHT22;36284;37.236;-121.934;2023-09-19T05:28:50;17.20;99.90
20200;DHT22;36284;37.236;-121.934;2023-09-19T05:31:17;17.20;99.90
20200;DHT22;36284;37.236;-121.934;2023-09-19T05:33:44;17.20;99.90
20200;DHT22;36284;37.236;-121.934;2023-09-19T05:36:11;17.10;99.90
20200;DHT22;36284;37.236;-121.934;2023-09-19T05:38:38;17.10;99.90
20200;DHT22;36284;37.236;-121.934;2023-09-19T05:41:09;17.10;99.90
20200;DHT22;36284;37.236;-121.934;2023-09-19T05:43:40;17.20;99.90
20200;DHT22;36284;37.236;-121.934;2023-09-19T05:46:08;17.10;99.90
20200;DHT22;36284;37.236;-121.934;2023-09-19T05:48:35;17.00;99.90
20200;DHT22;36284;37.236;-121.934;2023-09-19T05:51:02;16.90;99.90
20200;DHT22;36284;37.236;-121.934;2023-09-19T05:53:29;16.90;99.90
20200;DHT22;36284;37.236;-121.934;2023-09-19T05:55:56;16.90;99.90
20200;DHT22;36284;37.236;-121.934;2023-09-19T06:10:42;16.40;99.90
20200;DHT22;36284;37.236;-121.934;2023-09-19T06:13:09;16.50;99.90
20200;DHT22;36284;37.236;-121.934;2023-09-19T06:15:37;16.50;99.90
20200;DHT22;36284;37.236;-121.934;2023-09-19T06:18:04;16.60;99.90
20200;DHT22;36284;37.236;-121.934;2023-09-19T06:20:31;16.50;99.90
20200;DHT22;36284;37.236;-121.934;2023-09-19T06:22:59;16.50;99.90
20200;DHT22;36284;37.236;-121.934;2023-09-19T06:47:44;16.00;99.90
20200;DHT22;36284;37.236;-121.934;2023-09-19T06:50:12;16.10;99.90
20200;DHT22;36284;37.236;-121.934;2023-09-19T06:52:46;16.10;99.90
20200;DHT22;36284;37.236;-121.934;2023-09-19T06:55:17;16.10;99.90
20200;DHT22;36284;37.236;-121.934;2023-09-19T06:57:46;15.90;99.90
20200;DHT22;36284;37.236;-121.934;2023-09-19T07:00:14;15.80;99.90
20200;DHT22;36284;37.236;-121.934;2023-09-19T07:02:45;15.90;99.90
20200;DHT22;36284;37.236;-121.934;2023-09-19T07:05:12;15.90;99.90
20200;DHT22;36284;37.236;-121.934;2023-09-19T07:07:39;15.80;99.90
20200;DHT22;36284;37.236;-121.934;2023-09-19T07:10:06;15.80;99.90
20200;DHT22;36284;37.236;-121.934;2023-09-19T07:12:37;15.80;99.90
20200;DHT22;36284;37.236;-121.934;2023-09-19T07:15:04;15.80;99.90
20200;DHT22;36284;37.236;-121.934;2023-09-19T07:17:32;15.80;99.90
20200;DHT22;36284;37.236;-121.934;2023-09-19T07:19:59;15.70;99.90
20200;DHT22;36284;37.236;-121.934;2023-09-19T07:22:27;15.70;99.90
20200;DHT22;36284;37.236;-121.934;2023-09-19T07:24:53;15.70;99.90
20200;DHT22;36284;37.236;-121.934;2023-09-19T07:27:21;15.60;99.90
20200;DHT22;36284;37.236;-121.934;2023-09-19T07:29:50;15.70;99.90
20200;DHT22;36284;37.236;-121.934;2023-09-19T07:32:18;15.70;99.90
20200;DHT22;36284;37.236;-121.934;2023-09-19T07:34:44;15.60;99.90
20200;DHT22;36284;37.236;-121.934;2023-09-19T07:37:11;15.60;99.90
20200;DHT22;36284;37.236;-121.934;2023-09-19T07:39:42;15.50;99.90
20200;DHT22;36284;37.236;-121.934;2023-09-19T07:42:10;15.60;99.90
20200;DHT22;36284;37.236;-121.934;2023-09-19T07:44:38;15.50;99.90
20200;DHT22;36284;37.236;-121.934;2023-09-19T07:47:05;15.50;99.90
20200;DHT22;36284;37.236;-121.934;2023-09-19T07:49:32;15.60;99.90
20200;DHT22;36284;37.236;-121.934;2023-09-19T07:51:58;15.60;99.90
20200;DHT22;36284;37.236;-121.934;2023-09-19T07:54:26;15.60;99.90
20200;DHT22;36284;37.236;-121.934;2023-09-19T07:56:56;15.50;99.90
20200;DHT22;36284;37.236;-121.934;2023-09-19T07:59:24;15.40;99.90
20200;DHT22;36284;37.236;-121.934;2023-09-19T08:01:51;15.40;99.90
20200;DHT22;36284;37.236;-121.934;2023-09-19T08:04:18;15.40;99.90
20200;DHT22;36284;37.236;-121.934;2023-09-19T08:06:45;15.40;99.90
20200;DHT22;36284;37.236;-121.934;2023-09-19T08:09:12;15.50;99.90
20200;DHT22;36284;37.236;-121.934;2023-09-19T08:11:46;15.50;99.90
20200;DHT22;36284;37.236;-121.934;2023-09-19T08:14:14;15.40;99.90
20200;DHT22;36284;37.236;-121.934;2023-09-19T08:16:41;15.40;99.90
20200;DHT22;36284;37.236;-121.934;2023-09-19T08:19:10;15.40;99.90
20200;DHT22;36284;37.236;-121.934;2023-09-19T08:21:37;15.40;99.90
20200;DHT22;36284;37.236;-121.934;2023-09-19T08:24:04;15.30;99.90
20200;DHT22;36284;37.236;-121.934;2023-09-19T08:26:32;15.30;99.90
20200;DHT22;36284;37.236;-121.934;2023-09-19T08:28:59;15.20;99.90
20200;DHT22;36284;37.236;-121.934;2023-09-19T08:31:31;15.20;99.90
20200;DHT22;36284;37.236;-121.934;2023-09-19T08:33:58;15.20;99.90
20200;DHT22;36284;37.236;-121.934;2023-09-19T08:36:26;15.20;99.90
20200;DHT22;36284;37.236;-121.934;2023-09-19T08:38:53;15.10;99.90
20200;DHT22;36284;37.236;-121.934;2023-09-19T08:41:20;15.10;99.90
20200;DHT22;36284;37.236;-121.934;2023-09-19T08:43:46;15.20;99.90
20200;DHT22;36284;37.236;-121.934;2023-09-19T08:46:19;15.10;99.90
20200;DHT22;36284;37.236;-121.934;2023-09-19T08:48:54;15.10;99.90
20200;DHT22;36284;37.236;-121.934;2023-09-19T08:51:33;15.10;99.90
20200;DHT22;36284;37.236;-121.934;2023-09-19T08:56:46;15.00;99.90
20200;DHT22;36284;37.236;-121.934;2023-09-19T08:59:14;14.90;99.90
20200;DHT22;36284;37.236;-121.934;2023-09-19T09:01:42;15.00;99.90
20200;DHT22;36284;37.236;-121.934;2023-09-19T09:04:09;15.10;99.90
20200;DHT22;36284;37.236;-121.934;2023-09-19T09:06:39;15.10;99.90
20200;DHT22;36284;37.236;-121.934;2023-09-19T09:09:07;15.00;99.90
20200;DHT22;36284;37.236;-121.934;2023-09-19T09:11:37;15.00;99.90
20200;DHT22;36284;37.236;-121.934;2023-09-19T09:14:07;14.90;99.90
20200;DHT22;36284;37.236;-121.934;2023-09-19T09:16:34;15.00;99.90
20200;DHT22;36284;37.236;-121.934;2023-09-19T09:19:01;15.00;99.90
20200;DHT22;36284;37.236;-121.934;2023-09-19T09:21:28;15.00;99.90
20200;DHT22;36284;37.236;-121.934;2023-09-19T09:23:55;15.10;99.90
20200;DHT22;36284;37.236;-121.934;2023-09-19T09:26:45;15.10;99.90
20200;DHT22;36284;37.236;-121.934;2023-09-19T09:29:13;14.60;99.90
20200;DHT22;36284;37.236;-121.934;2023-09-19T09:31:41;15.10;99.90
20200;DHT22;36284;37.236;-121.934;2023-09-19T09:34:09;15.10;99.90
20200;DHT22;36284;37.236;-121.934;2023-09-19T09:36:40;14.90;99.90
20200;DHT22;36284;37.236;-121.934;2023-09-19T09:39:10;14.90;99.90
20200;DHT22;36284;37.236;-121.934;2023-09-19T09:41:51;14.90;99.90
20200;DHT22;36284;37.236;-121.934;2023-09-19T09:44:18;15.00;99.90
20200;DHT22;36284;37.236;-121.934;2023-09-19T09:46:47;14.90;99.90
20200;DHT22;36284;37.236;-121.934;2023-09-19T09:49:24;14.90;99.90
20200;DHT22;36284;37.236;-121.934;2023-09-19T09:52:06;14.90;99.90
20200;DHT22;36284;37.236;-121.934;2023-09-19T09:54:34;14.90;99.90
20200;DHT22;36284;37.236;-121.934;2023-09-19T09:57:11;14.90;99.90
20200;DHT22;36284;37.236;-121.934;2023-09-19T09:59:56;14.80;99.90
20200;DHT22;36284;37.236;-121.934;2023-09-19T10:02:42;14.90;99.90
20200;DHT22;36284;37.236;-121.934;2023-09-19T10:05:17;14.80;99.90
20200;DHT22;36284;37.236;-121.934;2023-09-19T10:07:54;14.80;99.90
20200;DHT22;36284;37.236;-121.934;2023-09-19T10:10:34;14.80;99.90
20200;DHT22;36284;37.236;-121.934;2023-09-19T10:13:26;14.70;99.90
20200;DHT22;36284;37.236;-121.934;2023-09-19T10:15:56;14.70;99.90
20200;DHT22;36284;37.236;-121.934;2023-09-19T10:18:26;14.60;99.90
20200;DHT22;36284;37.236;-121.934;2023-09-19T10:20:57;14.60;99.90
20200;DHT22;36284;37.236;-121.934;2023-09-19T10:23:25;14.50;99.90
20200;DHT22;36284;37.236;-121.934;2023-09-19T10:25:56;14.50;99.90
20200;DHT22;36284;37.236;-121.934;2023-09-19T10:28:27;14.50;99.90
20200;DHT22;36284;37.236;-121.934;2023-09-19T10:30:55;14.50;99.90
20200;DHT22;36284;37.236;-121.934;2023-09-19T10:33:25;14.50;99.90
20200;DHT22;36284;37.236;-121.934;2023-09-19T10:35:59;14.50;99.90
20200;DHT22;36284;37.236;-121.934;2023-09-19T10:38:27;14.50;99.90
20200;DHT22;36284;37.236;-121.934;2023-09-19T10:40:56;14.50;99.90
20200;DHT22;36284;37.236;-121.934;2023-09-19T10:43:32;14.60;99.90
20200;DHT22;36284;37.236;-121.934;2023-09-19T10:46:07;14.50;99.90
20200;DHT22;36284;37.236;-121.934;2023-09-19T10:48:37;14.60;99.90
20200;DHT22;36284;37.236;-121.934;2023-09-19T10:51:18;14.60;99.90
20200;DHT22;36284;37.236;-121.934;2023-09-19T10:54:01;14.60;99.90
20200;DHT22;36284;37.236;-121.934;2023-09-19T10:56:34;14.50;99.90
20200;DHT22;36284;37.236;-121.934;2023-09-19T10:59:11;14.50;99.90
20200;DHT22;36284;37.236;-121.934;2023-09-19T11:01:53;14.30;99.90
20200;DHT22;36284;37.236;-121.934;2023-09-19T11:04:33;14.40;99.90
20200;DHT22;36284;37.236;-121.934;2023-09-19T11:07:09;14.30;99.90
20200;DHT22;36284;37.236;-121.934;2023-09-19T11:09:54;14.30;99.90
20200;DHT22;36284;37.236;-121.934;2023-09-19T11:27:10;14.10;99.90
20200;DHT22;36284;37.236;-121.934;2023-09-19T11:29:40;14.00;99.90
20200;DHT22;36284;37.236;-121.934;2023-09-19T11:32:07;14.00;99.90
20200;DHT22;36284;37.236;-121.934;2023-09-19T11:40:06;14.00;99.90
20200;DHT22;36284;37.236;-121.934;2023-09-19T11:42:47;14.00;99.90
20200;DHT22;36284;37.236;-121.934;2023-09-19T11:48:23;14.20;99.90
20200;DHT22;36284;37.236;-121.934;2023-09-19T11:50:53;14.10;99.90
20200;DHT22;36284;37.236;-121.934;2023-09-19T11:53:22;14.10;99.90
20200;DHT22;36284;37.236;-121.934;2023-09-19T11:55:50;14.20;99.90
20200;DHT22;36284;37.236;-121.934;2023-09-19T11:58:17;14.20;99.90
20200;DHT22;36284;37.236;-121.934;2023-09-19T12:00:46;14.20;99.90
20200;DHT22;36284;37.236;-121.934;2023-09-19T12:03:21;14.20;99.90
20200;DHT22;36284;37.236;-121.934;2023-09-19T12:05:49;13.50;99.90
20200;DHT22;36284;37.236;-121.934;2023-09-19T12:08:16;14.30;99.90
20200;DHT22;36284;37.236;-121.934;2023-09-19T12:10:50;14.30;99.90
20200;DHT22;36284;37.236;-121.934;2023-09-19T12:13:18;14.20;99.90
20200;DHT22;36284;37.236;-121.934;2023-09-19T12:15:45;14.20;99.90
20200;DHT22;36284;37.236;-121.934;2023-09-19T12:18:30;14.10;99.90
20200;DHT22;36284;37.236;-121.934;2023-09-19T12:20:57;14.20;99.90
20200;DHT22;36284;37.236;-121.934;2023-09-19T12:23:24;14.10;99.90
20200;DHT22;36284;37.236;-121.934;2023-09-19T12:25:54;14.20;99.90
20200;DHT22;36284;37.236;-121.934;2023-09-19T12:28:27;14.10;99.90
20200;DHT22;36284;37.236;-121.934;2023-09-19T12:30:56;14.10;99.90
20200;DHT22;36284;37.236;-121.934;2023-09-19T12:33:24;14.00;99.90
20200;DHT22;36284;37.236;-121.934;2023-09-19T12:35:54;14.00;99.90
20200;DHT22;36284;37.236;-121.934;2023-09-19T12:38:27;14.00;99.90
20200;DHT22;36284;37.236;-121.934;2023-09-19T12:41:01;13.90;99.90
20200;DHT22;36284;37.236;-121.934;2023-09-19T12:43:30;14.00;99.90
20200;DHT22;36284;37.236;-121.934;2023-09-19T12:45:59;13.90;99.90
20200;DHT22;36284;37.236;-121.934;2023-09-19T12:48:27;13.90;99.90
20200;DHT22;36284;37.236;-121.934;2023-09-19T12:51:08;13.90;99.90
20200;DHT22;36284;37.236;-121.934;2023-09-19T12:53:46;13.80;99.90
20200;DHT22;36284;37.236;-121.934;2023-09-19T12:56:23;13.80;99.90
20200;DHT22;36284;37.236;-121.934;2023-09-19T12:58:57;13.70;99.90
20200;DHT22;36284;37.236;-121.934;2023-09-19T13:01:29;13.70;99.90
20200;DHT22;36284;37.236;-121.934;2023-09-19T13:04:20;13.70;99.90
20200;DHT22;36284;37.236;-121.934;2023-09-19T13:06:54;13.70;99.90
20200;DHT22;36284;37.236;-121.934;2023-09-19T13:09:22;13.70;99.90
20200;DHT22;36284;37.236;-121.934;2023-09-19T13:12:00;13.70;99.90
20200;DHT22;36284;37.236;-121.934;2023-09-19T13:14:29;13.70;99.90
20200;DHT22;36284;37.236;-121.934;2023-09-19T13:17:05;13.70;99.90
20200;DHT22;36284;37.236;-121.934;2023-09-19T13:19:50;13.70;99.90
20200;DHT22;36284;37.236;-121.934;2023-09-19T13:22:37;13.70;99.90
20200;DHT22;36284;37.236;-121.934;2023-09-19T13:25:15;13.80;99.90
20200;DHT22;36284;37.236;-121.934;2023-09-19T13:27:46;13.70;99.90
20200;DHT22;36284;37.236;-121.934;2023-09-19T13:30:15;13.70;99.90
20200;DHT22;36284;37.236;-121.934;2023-09-19T13:32:42;13.80;99.90
20200;DHT22;36284;37.236;-121.934;2023-09-19T13:35:10;13.80;99.90
20200;DHT22;36284;37.236;-121.934;2023-09-19T13:37:38;13.70;99.90
20200;DHT22;36284;37.236;-121.934;2023-09-19T13:40:13;13.80;99.90
20200;DHT22;36284;37.236;-121.934;2023-09-19T13:42:41;13.80;99.90
20200;DHT22;36284;37.236;-121.934;2023-09-19T13:45:08;13.70;99.90
20200;DHT22;36284;37.236;-121.934;2023-09-19T13:47:39;13.60;99.90
20200;DHT22;36284;37.236;-121.934;2023-09-19T13:50:07;13.60;99.90
20200;DHT22;36284;37.236;-121.934;2023-09-19T13:52:34;13.60;99.90
20200;DHT22;36284;37.236;-121.934;2023-09-19T13:55:01;13.60;99.90
20200;DHT22;36284;37.236;-121.934;2023-09-19T13:57:28;13.60;99.90
20200;DHT22;36284;37.236;-121.934;2023-09-19T13:59:55;13.70;99.90
20200;DHT22;36284;37.236;-121.934;2023-09-19T14:02:23;13.60;99.90
20200;DHT22;36284;37.236;-121.934;2023-09-19T14:04:51;13.60;99.90
20200;DHT22;36284;37.236;-121.934;2023-09-19T14:07:19;13.60;99.90
20200;DHT22;36284;37.236;-121.934;2023-09-19T14:09:46;13.60;99.90
20200;DHT22;36284;37.236;-121.934;2023-09-19T14:12:14;13.60;99.90
20200;DHT22;36284;37.236;-121.934;2023-09-19T14:14:41;13.60;99.90
20200;DHT22;36284;37.236;-121.934;2023-09-19T14:17:08;13.70;99.90
20200;DHT22;36284;37.236;-121.934;2023-09-19T14:19:35;13.70;99.90
20200;DHT22;36284;37.236;-121.934;2023-09-19T14:22:04;13.70;99.90
20200;DHT22;36284;37.236;-121.934;2023-09-19T14:24:34;13.80;99.90
20200;DHT22;36284;37.236;-121.934;2023-09-19T14:27:02;13.80;99.90
20200;DHT22;36284;37.236;-121.934;2023-09-19T14:29:30;13.90;99.90
20200;DHT22;36284;37.236;-121.934;2023-09-19T14:31:57;14.00;99.90
20200;DHT22;36284;37.236;-121.934;2023-09-19T14:34:24;14.00;99.90
20200;DHT22;36284;37.236;-121.934;2023-09-19T14:36:51;14.10;99.90
20200;DHT22;36284;37.236;-121.934;2023-09-19T14:39:20;14.20;99.90
20200;DHT22;36284;37.236;-121.934;2023-09-19T14:41:47;14.30;99.90
20200;DHT22;36284;37.236;-121.934;2023-09-19T14:44:14;14.30;99.90
20200;DHT22;36284;37.236;-121.934;2023-09-19T14:46:44;14.40;99.90
20200;DHT22;36284;37.236;-121.934;2023-09-19T14:49:11;14.60;99.90
20200;DHT22;36284;37.236;-121.934;2023-09-19T14:51:38;14.60;99.90
20200;DHT22;36284;37.236;-121.934;2023-09-19T14:54:10;14.80;99.90
20200;DHT22;36284;37.236;-121.934;2023-09-19T14:56:37;15.00;99.90
20200;DHT22;36284;37.236;-121.934;2023-09-19T14:59:04;15.30;99.90
20200;DHT22;36284;37.236;-121.934;2023-09-19T15:01:31;15.60;99.90
20200;DHT22;36284;37.236;-121.934;2023-09-19T15:03:58;15.90;99.90
20200;DHT22;36284;37.236;-121.934;2023-09-19T15:06:27;16.20;99.90
20200;DHT22;36284;37.236;-121.934;2023-09-19T15:08:54;16.60;99.90
20200;DHT22;36284;37.236;-121.934;2023-09-19T15:11:21;16.90;99.90
20200;DHT22;36284;37.236;-121.934;2023-09-19T15:13:52;17.40;99.90
20200;DHT22;36284;37.236;-121.934;2023-09-19T15:16:23;17.60;99.90
20200;DHT22;36284;37.236;-121.934;2023-09-19T15:18:50;17.90;99.90
20200;DHT22;36284;37.236;-121.934;2023-09-19T15:21:18;17.90;99.90
20200;DHT22;36284;37.236;-121.934;2023-09-19T15:23:46;18.20;99.90
20200;DHT22;36284;37.236;-121.934;2023-09-19T15:26:14;18.40;99.90
20200;DHT22;36284;37.236;-121.934;2023-09-19T15:28:46;18.60;99.90
20200;DHT22;36284;37.236;-121.934;2023-09-19T15:31:14;18.60;99.90
20200;DHT22;36284;37.236;-121.934;2023-09-19T15:33:41;18.80;99.90
20200;DHT22;36284;37.236;-121.934;2023-09-19T15:36:13;19.00;99.90
20200;DHT22;36284;37.236;-121.934;2023-09-19T15:39:02;19.30;99.90
20200;DHT22;36284;37.236;-121.934;2023-09-19T15:41:35;19.30;99.90
20200;DHT22;36284;37.236;-121.934;2023-09-19T15:44:04;19.20;99.90
20200;DHT22;36284;37.236;-121.934;2023-09-19T15:46:32;19.40;99.90
20200;DHT22;36284;37.236;-121.934;2023-09-19T15:49:03;19.60;99.90
20200;DHT22;36284;37.236;-121.934;2023-09-19T15:51:30;19.50;99.90
20200;DHT22;36284;37.236;-121.934;2023-09-19T15:53:57;19.90;99.90
20200;DHT22;36284;37.236;-121.934;2023-09-19T15:56:26;19.90;99.90
20200;DHT22;36284;37.236;-121.934;2023-09-19T15:58:54;20.30;99.90
20200;DHT22;36284;37.236;-121.934;2023-09-19T16:01:22;20.60;99.90
20200;DHT22;36284;37.236;-121.934;2023-09-19T16:03:51;20.60;99.90
20200;DHT22;36284;37.236;-121.934;2023-09-19T16:06:30;20.70;99.90
20200;DHT22;36284;37.236;-121.934;2023-09-19T16:09:00;20.80;99.90
20200;DHT22;36284;37.236;-121.934;2023-09-19T16:11:32;21.00;99.90
20200;DHT22;36284;37.236;-121.934;2023-09-19T16:13:59;21.20;99.90
20200;DHT22;36284;37.236;-121.934;2023-09-19T16:16:28;21.30;99.90
20200;DHT22;36284;37.236;-121.934;2023-09-19T16:18:59;21.70;99.90
20200;DHT22;36284;37.236;-121.934;2023-09-19T16:21:32;22.00;99.90
20200;DHT22;36284;37.236;-121.934;2023-09-19T16:24:01;22.00;99.90
20200;DHT22;36284;37.236;-121.934;2023-09-19T16:26:29;22.40;99.90
20200;DHT22;36284;37.236;-121.934;2023-09-19T16:28:58;22.30;99.90
20200;DHT22;36284;37.236;-121.934;2023-09-19T16:31:29;22.30;99.90
20200;DHT22;36284;37.236;-121.934;2023-09-19T16:33:57;22.00;99.90
20200;DHT22;36284;37.236;-121.934;2023-09-19T16:36:25;22.40;99.90
20200;DHT22;36284;37.236;-121.934;2023-09-19T16:38:52;22.70;99.90